Time;durP1;ratioP1;P1;durP2;ratioP2;P2;SDS_P1;SDS_P2;PMS_P1;PMS_P2;Temp;Humidity;BMP_temperature;BMP_pressure;BME280_temperature;BME280_humidity;BME280_pressure;Samples;Min_cycle;Max_cycle;Signal;HPM_P1;HPM_P2
2022/05/02 00:01:21;;;;;;;3.55;3.25;;;;;;;6.94;86.23;99517.56;8139208;29;20046;-69
2022/05/02 00:05:23;;;;;;;4.80;3.42;;;;;;;6.91;85.98;99508.06;8141389;29;20777;-70
2022/05/02 00:09:24;;;;;;;3.13;2.93;;;;;;;6.87;86.59;99502.84;8145443;29;20138;-70
2022/05/02 00:13:26;;;;;;;3.70;3.30;;;;;;;6.83;86.38;99506.25;8157531;29;20039;-70
2022/05/02 00:21:47;;;;;;;3.93;3.50;;;;;;;6.75;87.38;99494.94;8164307;29;20051;-70
2022/05/02 00:25:50;;;;;;;3.60;3.30;;;;;;;6.74;87.55;99499.25;8164573;29;20058;-70
2022/05/02 00:29:51;;;;;;;3.45;3.13;;;;;;;6.75;87.56;99500.09;8164364;29;20075;-70
2022/05/02 00:33:53;;;;;;;4.30;3.60;;;;;;;6.69;87.49;99495.75;8171334;29;20546;-70
2022/05/02 00:37:54;;;;;;;3.87;3.57;;;;;;;6.64;87.62;99494.78;8177891;29;20078;-70
2022/05/02 00:41:56;;;;;;;3.37;3.07;;;;;;;6.64;87.53;99485.38;8175979;29;20058;-71
2022/05/02 00:45:57;;;;;;;4.13;3.03;;;;;;;6.61;87.65;99484.44;8180576;29;20044;-70
2022/05/02 00:49:58;;;;;;;3.50;3.20;;;;;;;6.55;87.37;99484.38;8171935;29;20044;-70
2022/05/02 00:54:01;;;;;;;3.33;3.00;;;;;;;6.49;87.51;99487.75;8175106;29;20106;-70
2022/05/02 00:58:03;;;;;;;3.35;2.72;;;;;;;6.45;87.14;99479.94;8177283;29;20075;-70
2022/05/02 01:02:06;;;;;;;3.08;2.88;;;;;;;6.42;87.19;99477.31;8177657;29;20047;-71
2022/05/02 01:10:30;;;;;;;3.50;3.20;;;;;;;6.32;87.77;99474.63;8174512;29;20130;-69
2022/05/02 01:14:35;;;;;;;4.18;3.33;;;;;;;6.32;87.61;99466.03;8161790;29;20456;-70
2022/05/02 01:18:37;;;;;;;3.40;3.10;;;;;;;6.33;87.69;99462.59;8170543;29;20044;-70
2022/05/02 01:22:39;;;;;;;3.25;2.88;;;;;;;6.30;87.96;99455.69;8177067;29;20063;-70
2022/05/02 01:26:40;;;;;;;3.07;2.77;;;;;;;6.26;87.77;99468.50;8175164;29;20078;-69
2022/05/02 01:30:41;;;;;;;3.80;3.40;;;;;;;6.17;87.55;99452.91;8169276;29;20138;-70
2022/05/02 01:34:43;;;;;;;3.50;3.20;;;;;;;6.08;87.68;99461.38;8174108;29;20055;-70
2022/05/02 01:38:45;;;;;;;;;;;;;;;6.02;87.69;99453.56;8175400;29;20047;-70
2022/05/02 01:42:47;;;;;;;3.00;2.77;;;;;;;5.97;87.87;99457.78;8174173;29;19981;-69
2022/05/02 01:46:48;;;;;;;3.70;2.80;;;;;;;5.90;87.49;99455.94;8159921;29;20070;-70
2022/05/02 01:50:50;;;;;;;3.17;2.87;;;;;;;5.87;87.62;99456.72;8176044;29;20076;-70
2022/05/02 01:54:51;;;;;;;3.37;2.90;;;;;;;5.83;88.30;99460.09;8175631;29;20082;-70
2022/05/02 01:58:53;;;;;;;3.23;2.90;;;;;;;5.81;88.26;99466.94;8173996;29;20079;-70
2022/05/02 02:02:54;;;;;;;3.27;2.97;;;;;;;5.80;88.28;99462.63;8175772;29;20139;-69
2022/05/02 02:06:56;;;;;;;3.37;3.07;;;;;;;5.82;88.46;99453.22;8177514;29;20337;-70
2022/05/02 02:11:01;;;;;;;4.50;3.43;;;;;;;5.73;88.17;99461.66;8178277;29;20871;-70
2022/05/02 02:15:03;;;;;;;3.30;3.07;;;;;;;5.73;88.13;99451.34;8178434;29;20052;-69
2022/05/02 02:19:04;;;;;;;3.83;3.40;;;;;;;5.72;87.81;99444.47;8174064;29;20405;-70
2022/05/02 02:23:06;;;;;;;4.67;3.40;;;;;;;5.71;88.09;99442.75;8181742;29;20098;-70
2022/05/02 02:27:07;;;;;;;3.57;3.37;;;;;;;5.69;88.16;99446.13;8179579;29;20066;-70
2022/05/02 02:31:09;;;;;;;3.37;3.07;;;;;;;5.64;88.16;99443.50;8175390;29;20424;-70
2022/05/02 02:35:11;;;;;;;3.50;3.20;;;;;;;5.61;88.03;99446.03;8180119;28;20142;-69
2022/05/02 02:39:12;;;;;;;3.80;3.38;;;;;;;5.59;88.15;99447.72;8177234;29;20069;-70
2022/05/02 02:43:14;;;;;;;3.67;3.20;;;;;;;5.60;87.75;99434.00;8179414;29;20047;-70
2022/05/02 02:47:15;;;;;;;3.50;2.83;;;;;;;5.60;88.02;99427.97;8175921;29;20046;-70
2022/05/02 02:51:17;;;;;;;6.40;3.30;;;;;;;5.54;88.17;99428.72;8177192;29;20047;-70
2022/05/02 02:55:19;;;;;;;3.30;3.10;;;;;;;5.51;88.05;99422.66;8156165;29;20605;-70
2022/05/02 02:59:20;;;;;;;6.32;3.58;;;;;;;5.46;88.23;99422.59;8180025;29;20047;-69
2022/05/02 03:03:21;;;;;;;3.83;3.53;;;;;;;5.34;88.31;99419.81;8172352;29;20039;-69
2022/05/02 03:07:25;;;;;;;5.70;3.80;;;;;;;5.30;88.81;99423.19;8156313;29;20051;-69
2022/05/02 03:11:26;;;;;;;4.73;3.60;;;;;;;5.29;88.93;99422.31;8172262;29;20404;-70
2022/05/02 03:15:28;;;;;;;4.93;3.80;;;;;;;5.33;88.96;99408.63;8172933;29;20047;-70
2022/05/02 03:19:29;;;;;;;4.03;3.47;;;;;;;5.32;89.29;99411.19;8173042;29;20530;-70
2022/05/02 03:23:31;;;;;;;3.90;3.60;;;;;;;5.28;88.55;99412.84;8173558;29;20436;-70
2022/05/02 03:27:33;;;;;;;4.20;3.30;;;;;;;5.23;88.54;99405.91;8174450;29;20358;-69
2022/05/02 03:31:34;;;;;;;5.43;3.50;;;;;;;5.22;88.50;99405.03;8167626;29;20051;-70
2022/05/02 03:35:36;;;;;;;5.90;3.63;;;;;;;5.18;88.36;99408.38;8172889;29;20063;-69
2022/05/02 03:39:38;;;;;;;4.00;3.20;;;;;;;5.16;88.49;99408.34;8172707;29;20054;-69
2022/05/02 03:43:39;;;;;;;3.83;3.43;;;;;;;5.12;88.39;99404.00;8171108;29;20360;-69
2022/05/02 03:47:41;;;;;;;4.47;3.77;;;;;;;5.08;88.31;99401.34;8174900;29;20039;-70
2022/05/02 03:51:42;;;;;;;4.13;3.50;;;;;;;5.06;88.43;99400.47;8170241;28;20049;-69
2022/05/02 03:55:45;;;;;;;3.73;3.30;;;;;;;5.02;88.64;99402.09;8178454;29;20056;-70
2022/05/02 03:59:47;;;;;;;3.47;3.17;;;;;;;5.00;88.78;99398.63;8178868;29;20040;-70
2022/05/02 04:03:49;;;;;;;3.73;3.43;;;;;;;4.96;88.55;99399.41;8169203;29;20043;-70
2022/05/02 04:07:50;;;;;;;3.35;3.05;;;;;;;4.95;88.70;99399.41;8178772;29;20056;-70
2022/05/02 04:11:52;;;;;;;3.87;3.33;;;;;;;4.90;88.89;99391.59;8180497;29;20139;-70
2022/05/02 04:15:53;;;;;;;3.57;3.20;;;;;;;4.95;89.44;99400.25;8176164;29;20066;-70
2022/05/02 04:19:54;;;;;;;5.97;3.20;;;;;;;5.00;nan;99395.19;8177766;29;20135;-70
2022/05/02 04:23:56;;;;;;;3.63;3.33;;;;;;;4.99;89.57;99396.91;8176894;29;20138;-70
2022/05/02 04:27:57;;;;;;;3.97;3.57;;;;;;;4.99;89.47;99398.59;8179375;29;20044;-70
2022/05/02 04:31:59;;;;;;;3.27;2.97;;;;;;;5.05;89.19;99397.03;8176547;29;20437;-70
2022/05/02 04:36:00;;;;;;;5.27;3.20;;;;;;;5.06;89.34;99401.31;8179073;29;20078;-70
2022/05/02 04:40:03;;;;;;;6.27;3.20;;;;;;;5.07;89.34;99404.75;8179715;29;20094;-70
2022/05/02 04:44:04;;;;;;;4.20;3.53;;;;;;;5.07;89.21;99403.06;8176685;29;20062;-70
2022/05/02 04:48:06;;;;;;;3.20;2.87;;;;;;;5.06;89.28;99401.31;8180491;29;20106;-70
2022/05/02 04:52:08;;;;;;;3.63;3.38;;;;;;;5.15;89.48;99404.03;8174536;29;20071;-70
2022/05/02 04:56:09;;;;;;;3.53;3.23;;;;;;;5.23;89.41;99406.78;8179894;29;20784;-70
2022/05/02 05:00:11;;;;;;;4.40;3.33;;;;;;;5.30;89.14;99410.31;8175138;29;20440;-70
2022/05/02 05:04:13;;;;;;;3.78;3.28;;;;;;;5.34;89.29;99410.38;8171341;29;20057;-70
2022/05/02 05:08:15;;;;;;;3.75;3.45;;;;;;;5.37;89.46;99405.25;8174024;29;20353;-70
2022/05/02 05:12:31;;;;;;;3.33;3.03;;;;;;;5.50;89.22;99396.03;8173856;29;20047;-70
2022/05/02 05:16:50;;;;;;;3.57;3.23;;;;;;;5.66;89.08;99397.16;8171611;29;20444;-70
2022/05/02 05:21:02;;;;;;;5.23;3.03;;;;;;;5.81;88.70;99399.97;8171606;29;20050;-70
2022/05/02 05:25:43;;;;;;;3.70;3.30;;;;;;;5.98;88.63;99395.94;8174537;29;20047;-70
2022/05/02 05:30:06;;;;;;;2.93;2.73;;;;;;;6.35;88.82;99386.97;8164441;29;20054;-70
2022/05/02 05:34:16;;;;;;;4.90;3.40;;;;;;;7.03;86.99;99392.91;8154295;29;20087;-71
2022/05/02 05:38:21;;;;;;;2.75;2.55;;;;;;;7.73;84.79;99389.19;8156340;29;20922;-71
2022/05/02 05:43:01;;;;;;;3.53;3.08;;;;;;;8.27;81.87;99389.50;8156401;29;20090;-72
2022/05/02 05:47:40;;;;;;;2.60;2.40;;;;;;;8.50;80.86;99398.25;8158439;29;20486;-72
2022/05/02 05:52:15;;;;;;;2.88;2.67;;;;;;;8.76;79.90;99390.56;8156590;29;20134;-72
2022/05/02 05:56:35;;;;;;;2.72;2.38;;;;;;;9.10;78.85;99396.69;8169040;29;20047;-72
2022/05/02 06:00:43;;;;;;;2.90;2.70;;;;;;;9.45;78.18;99403.63;8167544;29;20047;-72
2022/05/02 06:04:49;;;;;;;2.80;2.60;;;;;;;9.76;76.52;99397.56;8166781;29;20043;-72
2022/05/02 06:08:54;;;;;;;5.13;2.67;;;;;;;10.16;76.23;99392.28;8165186;29;20172;-72
2022/05/02 06:12:57;;;;;;;2.70;2.50;;;;;;;10.59;74.52;99396.50;8171965;29;20048;-72
2022/05/02 06:21:44;;;;;;;2.90;2.60;;;;;;;11.47;71.97;99395.06;8055743;29;20061;-71
2022/05/02 06:25:49;;;;;;;4.68;3.42;;;;;;;11.92;70.19;99393.00;8112539;29;20083;-71
2022/05/02 06:29:51;;;;;;;5.90;3.75;;;;;;;12.29;69.48;99395.19;8168503;29;20071;-72
2022/05/02 06:33:53;;;;;;;4.53;3.75;;;;;;;12.63;68.20;99391.31;8167068;29;20055;-72
2022/05/02 06:38:37;;;;;;;4.07;3.20;;;;;;;12.97;66.63;99396.94;8165077;29;20058;-73
2022/05/02 06:42:49;;;;;;;4.50;2.85;;;;;;;13.15;65.89;99397.56;8170055;29;20055;-73
2022/05/02 06:47:16;;;;;;;3.58;3.10;;;;;;;13.48;65.64;99391.00;8164387;29;20051;-73
2022/05/02 06:51:22;;;;;;;6.25;3.22;;;;;;;13.73;65.02;99387.09;8170124;29;20417;-73
2022/05/02 06:55:33;;;;;;;5.40;2.80;;;;;;;14.15;64.79;99387.19;8165927;29;20389;-73
2022/05/02 07:00:07;;;;;;;9.25;3.55;;;;;;;14.51;63.47;99388.25;8158496;29;20439;-72
2022/05/02 07:04:24;;;;;;;5.38;3.90;;;;;;;14.84;62.20;99391.91;8156878;29;20058;-72
2022/05/02 07:08:29;;;;;;;43.78;24.75;;;;;;;15.10;60.91;99386.97;8157604;29;20134;-73
2022/05/02 07:12:34;;;;;;;30.77;17.15;;;;;;;15.43;60.33;99389.69;8153232;29;20135;-73
2022/05/02 07:16:44;;;;;;;17.30;10.85;;;;;;;15.69;59.26;99389.94;8154275;29;20432;-73
2022/05/02 07:21:00;;;;;;;16.30;10.02;;;;;;;15.90;58.80;99385.91;8155262;29;20510;-72
2022/05/02 07:25:12;;;;;;;16.23;9.82;;;;;;;16.23;58.04;99388.53;8158721;29;20629;-72
2022/05/02 07:29:15;;;;;;;13.73;8.18;;;;;;;16.37;57.19;99385.53;8155795;29;20200;-72
2022/05/02 07:33:18;;;;;;;11.75;7.15;;;;;;;16.36;57.38;99387.31;8155159;28;20174;-72
2022/05/02 07:37:23;;;;;;;17.27;6.88;;;;;;;16.54;58.10;99392.03;8159007;29;20112;-72
2022/05/02 07:41:26;;;;;;;9.82;5.57;;;;;;;16.77;56.59;99390.53;8156810;29;20063;-72
2022/05/02 07:45:29;;;;;;;8.40;5.20;;;;;;;17.12;55.42;99389.47;8173316;29;20070;-72
2022/05/02 07:49:33;;;;;;;7.15;4.88;;;;;;;17.38;54.15;99383.38;8144043;29;20043;-73
2022/05/02 07:53:39;;;;;;;9.88;4.57;;;;;;;17.71;53.93;99392.81;8159874;29;20529;-73
2022/05/02 07:57:42;;;;;;;11.10;5.10;;;;;;;17.94;53.15;99378.88;8134499;29;20110;-73
2022/05/02 08:01:44;;;;;;;8.70;4.85;;;;;;;18.11;51.97;99379.16;8165469;29;20039;-72
2022/05/02 08:05:50;;;;;;;7.22;5.28;;;;;;;18.53;51.13;99386.44;8159263;29;20051;-72
2022/05/02 08:10:18;;;;;;;14.25;9.02;;;;;;;18.97;49.93;99379.50;8156815;29;20867;-72
2022/05/02 08:14:31;;;;;;;13.85;8.68;;;;;;;19.13;48.91;99376.28;8156859;29;20518;-73
2022/05/02 08:19:03;;;;;;;11.30;5.90;;;;;;;19.31;48.79;99380.81;8158016;29;20439;-72
2022/05/02 08:28:07;;;;;;;5.53;3.65;;;;;;;19.47;47.52;99374.00;8152993;29;20043;-72
2022/05/02 08:32:22;;;;;;;4.22;2.92;;;;;;;19.65;46.81;99366.31;8155120;29;20047;-72
2022/05/02 08:36:33;;;;;;;3.65;3.28;;;;;;;19.85;46.20;99374.22;8154806;29;20051;-72
2022/05/02 08:41:08;;;;;;;3.97;3.58;;;;;;;19.99;45.32;99371.88;8143379;29;20469;-72
2022/05/02 08:45:47;;;;;;;4.38;3.20;;;;;;;19.91;45.63;99374.81;8161387;29;20431;-72
2022/05/02 08:50:10;;;;;;;6.50;3.25;;;;;;;19.49;44.98;99373.94;8155434;29;20147;-72
2022/05/02 08:54:49;;;;;;;5.63;3.08;;;;;;;19.41;45.78;99368.16;8161479;29;20059;-72
2022/05/02 08:59:27;;;;;;;4.47;3.60;;;;;;;19.64;45.71;99367.22;8163504;29;20119;-72
2022/05/02 09:03:56;;;;;;;3.75;2.72;;;;;;;20.04;45.48;99363.75;8166368;29;20055;-72
2022/05/02 09:08:16;;;;;;;3.30;2.80;;;;;;;20.37;44.39;99361.41;8159368;29;20126;-72
2022/05/02 09:12:21;;;;;;;4.45;2.92;;;;;;;20.62;43.86;99358.53;8160524;29;20086;-72
2022/05/02 09:16:58;;;;;;;2.67;2.47;;;;;;;20.81;42.80;99354.13;8158776;29;20508;-72
2022/05/02 09:21:10;;;;;;;4.38;2.60;;;;;;;21.06;43.15;99348.56;8157102;29;20043;-73
2022/05/02 09:25:17;;;;;;;7.07;2.70;;;;;;;21.27;41.16;99344.03;8166506;29;20040;-73
2022/05/02 09:29:42;;;;;;;2.67;2.47;;;;;;;21.30;40.74;99351.81;8167082;29;20039;-74
2022/05/02 09:34:08;;;;;;;3.78;2.15;;;;;;;21.49;40.23;99342.03;8167031;29;20155;-72
2022/05/02 09:38:26;;;;;;;2.58;2.38;;;;;;;21.71;39.89;99342.66;8168651;29;20075;-72
2022/05/02 09:42:43;;;;;;;2.50;2.30;;;;;;;21.73;37.68;99341.78;8170055;29;20039;-72
2022/05/02 09:51:55;;;;;;;2.17;1.73;;;;;;;21.89;37.64;99329.44;8168013;28;20047;-72
2022/05/02 10:01:10;;;;;;;3.70;2.25;;;;;;;21.83;38.28;99312.13;8168258;29;20050;-72
2022/05/02 10:05:39;;;;;;;3.50;2.10;;;;;;;22.00;37.53;99316.53;8154566;29;20048;-72
2022/05/02 10:09:55;;;;;;;2.45;1.67;;;;;;;22.10;37.49;99309.03;8161291;29;20079;-71
2022/05/02 10:14:41;;;;;;;3.10;1.80;;;;;;;22.35;35.44;99301.47;8157655;29;20086;-71
2022/05/02 10:18:51;;;;;;;6.78;2.05;;;;;;;22.55;36.67;99305.69;8159336;29;20047;-71
2022/05/02 10:23:15;;;;;;;3.08;1.60;;;;;;;22.50;35.20;99300.66;8159799;29;20397;-71
2022/05/02 10:27:23;;;;;;;2.72;1.73;;;;;;;22.60;35.34;99295.69;8155073;29;20043;-71
2022/05/02 10:31:25;;;;;;;4.47;1.70;;;;;;;22.67;34.88;99289.13;8158721;29;20130;-71
2022/05/02 10:35:28;;;;;;;2.47;1.40;;;;;;;22.98;35.30;99298.03;8158752;28;20056;-71
2022/05/02 10:39:40;;;;;;;4.32;1.50;;;;;;;23.18;34.51;99303.06;8160430;29;20452;-71
2022/05/02 10:43:50;;;;;;;1.85;1.67;;;;;;;23.15;34.17;99296.13;8162697;29;20051;-71
2022/05/02 10:47:54;;;;;;;3.72;1.77;;;;;;;22.79;33.06;99279.63;8155710;29;20166;-71
2022/05/02 10:52:10;;;;;;;4.38;2.38;;;;;;;22.83;33.98;99281.22;8141621;29;20095;-71
2022/05/02 10:56:54;;;;;;;3.90;1.45;;;;;;;23.34;34.11;99284.44;8159449;29;20043;-71
2022/05/02 11:01:08;;;;;;;3.45;1.60;;;;;;;23.58;32.56;99279.56;8156778;28;20437;-71
2022/05/02 11:05:16;;;;;;;2.08;1.42;;;;;;;23.66;32.27;99275.50;8153804;29;20548;-72
2022/05/02 11:09:29;;;;;;;2.35;1.73;;;;;;;23.89;32.42;99265.31;8160333;29;20123;-71
2022/05/02 11:13:57;;;;;;;2.63;2.00;;;;;;;23.40;31.72;99261.13;8152323;29;20058;-71
2022/05/02 11:22:56;;;;;;;3.40;1.33;;;;;;;23.60;33.09;99254.66;8148567;29;20057;-71
2022/05/02 11:27:08;;;;;;;1.40;1.23;;;;;;;23.83;33.28;99240.00;8150094;29;20556;-71
2022/05/02 11:31:19;;;;;;;5.78;1.30;;;;;;;24.09;31.57;99249.03;8149729;29;20100;-71
2022/05/02 11:35:28;;;;;;;2.05;1.60;;;;;;;24.06;32.19;99250.06;8150953;29;20074;-71
2022/05/02 11:39:36;;;;;;;1.50;1.40;;;;;;;23.58;32.30;99251.25;8151109;29;20051;-71
2022/05/02 11:43:38;;;;;;;2.45;1.60;;;;;;;22.97;33.13;99246.00;8149264;29;20689;-72
2022/05/02 11:47:54;;;;;;;1.85;1.60;;;;;;;22.41;34.06;99240.28;8147552;29;20062;-71
2022/05/02 11:52:00;;;;;;;3.38;1.70;;;;;;;22.50;36.35;99238.94;8150345;29;21524;-71
2022/05/02 11:56:04;;;;;;;1.92;1.38;;;;;;;22.73;35.56;99241.13;8158722;29;20058;-72
2022/05/02 12:00:11;;;;;;;2.55;1.23;;;;;;;22.53;34.51;99233.47;8162741;29;20549;-71
2022/05/02 12:04:16;;;;;;;5.50;1.65;;;;;;;22.66;34.00;99223.06;8162322;29;20510;-71
2022/05/02 12:08:25;;;;;;;1.88;1.20;;;;;;;22.92;33.63;99231.22;8163415;29;20817;-71
2022/05/02 12:12:27;;;;;;;2.70;1.70;;;;;;;23.18;33.74;99228.88;8157629;29;20439;-71
2022/05/02 12:16:33;;;;;;;;;;;;;;;22.97;34.01;99233.59;8166361;29;20043;-71
2022/05/02 12:20:40;;;;;;;1.88;1.67;;;;;;;22.59;34.61;99228.66;8166539;29;20186;-71
2022/05/02 12:24:44;;;;;;;1.58;1.40;;;;;;;22.44;34.47;99228.66;8170561;29;20511;-71
2022/05/02 12:28:48;;;;;;;1.45;1.35;;;;;;;22.95;34.67;99218.75;8174061;29;20669;-71
2022/05/02 12:32:50;;;;;;;4.55;1.40;;;;;;;23.31;34.41;99219.25;8168857;29;20690;-71
2022/05/02 12:36:56;;;;;;;5.45;1.58;;;;;;;23.32;33.00;99212.16;8169309;29;20095;-71
2022/05/02 12:41:01;;;;;;;1.98;1.23;;;;;;;23.58;34.05;99208.84;8172782;29;20159;-71
2022/05/02 12:45:04;;;;;;;4.88;1.83;;;;;;;23.31;33.26;99213.94;8159933;29;20076;-71
2022/05/02 12:49:14;;;;;;;1.75;1.23;;;;;;;23.31;33.37;99213.09;8171089;29;20159;-71
2022/05/02 12:54:09;;;;;;;5.88;1.50;;;;;;;23.16;32.53;99209.56;8170988;29;20372;-71
2022/05/02 13:02:32;;;;;;;3.30;1.48;;;;;;;22.92;35.83;99198.59;8160703;29;20040;-72
2022/05/02 13:06:39;;;;;;;1.60;1.40;;;;;;;23.49;34.60;99194.28;8154512;29;20191;-71
2022/05/02 13:10:43;;;;;;;5.80;1.50;;;;;;;23.45;33.89;99190.13;8166257;29;20047;-71
2022/05/02 13:14:47;;;;;;;2.28;1.30;;;;;;;23.17;34.43;99182.16;8159327;29;20057;-72
2022/05/02 13:18:50;;;;;;;2.80;1.30;;;;;;;22.79;34.67;99193.13;8165089;29;20043;-72
2022/05/02 13:23:10;;;;;;;3.40;1.50;;;;;;;22.33;34.46;99192.25;8144530;29;20865;-72
2022/05/02 13:27:21;;;;;;;4.68;1.30;;;;;;;21.94;34.81;99185.53;8157167;29;20146;-72
2022/05/02 13:31:30;;;;;;;1.98;1.55;;;;;;;21.81;36.42;99178.34;8158023;29;20150;-72
2022/05/02 13:35:35;;;;;;;2.67;1.60;;;;;;;21.79;36.64;99167.00;8160038;29;20067;-72
2022/05/02 13:39:51;;;;;;;2.30;1.42;;;;;;;22.11;36.05;99166.13;8146648;29;20050;-73
2022/05/02 13:44:07;;;;;;;3.17;1.55;;;;;;;22.75;35.95;99162.47;8164830;29;20059;-72
2022/05/02 13:48:32;;;;;;;1.92;1.35;;;;;;;22.89;34.73;99165.22;8141452;29;20459;-73
2022/05/02 13:52:53;;;;;;;3.20;1.65;;;;;;;22.44;35.10;99171.34;8159858;29;20106;-73
2022/05/02 13:57:18;;;;;;;6.10;2.35;;;;;;;22.06;35.14;99160.22;8160645;29;20063;-73
2022/05/02 14:01:28;;;;;;;6.10;1.92;;;;;;;21.78;35.35;99160.84;8169741;29;20054;-73
2022/05/02 14:05:47;;;;;;;4.68;1.70;;;;;;;21.55;35.32;99163.88;8169929;29;20043;-74
2022/05/02 14:09:51;;;;;;;2.08;1.50;;;;;;;21.45;36.06;99166.13;8153373;29;20043;-74
2022/05/02 14:14:06;;;;;;;4.32;1.40;;;;;;;21.39;35.83;99164.69;8167536;29;20414;-74
2022/05/02 14:18:11;;;;;;;4.57;1.77;;;;;;;21.33;36.57;99170.25;8160914;29;20696;-74
2022/05/02 14:22:12;;;;;;;4.78;2.00;;;;;;;21.29;36.72;99167.88;8168535;29;20062;-74
2022/05/02 14:26:15;;;;;;;1.40;1.30;;;;;;;21.29;37.99;99176.63;8169009;29;20056;-73
2022/05/02 14:30:24;;;;;;;2.78;1.45;;;;;;;21.29;37.31;99155.50;8165452;29;20039;-73
2022/05/02 14:34:38;;;;;;;9.43;1.40;;;;;;;21.53;37.53;99155.16;8169427;29;20154;-74
2022/05/02 14:38:40;;;;;;;2.20;1.45;;;;;;;21.56;37.06;99158.50;8166612;29;20476;-73
2022/05/02 14:42:44;;;;;;;5.20;1.70;;;;;;;21.49;36.85;99165.03;8167368;29;20680;-73
2022/05/02 14:46:45;;;;;;;3.67;1.98;;;;;;;21.47;37.16;99158.13;8165219;29;20056;-73
2022/05/02 14:50:49;;;;;;;1.58;1.40;;;;;;;21.39;36.10;99150.63;8163882;29;20039;-74
2022/05/02 14:54:54;;;;;;;2.85;1.75;;;;;;;21.37;37.29;99150.69;8172074;29;20085;-73
2022/05/02 14:58:58;;;;;;;2.47;1.40;;;;;;;21.27;37.48;99149.47;8148662;29;20048;-73
2022/05/02 15:03:05;;;;;;;3.95;1.52;;;;;;;21.25;38.23;99147.84;8167557;29;20102;-73
2022/05/02 15:07:11;;;;;;;4.22;1.40;;;;;;;21.28;37.65;99139.75;8165737;29;20051;-72
2022/05/02 15:11:39;;;;;;;2.45;1.35;;;;;;;21.32;39.09;99138.66;8167985;29;20047;-72
2022/05/02 15:15:56;;;;;;;2.67;1.65;;;;;;;21.40;38.68;99139.13;8159139;29;20081;-72
2022/05/02 15:20:10;;;;;;;5.35;1.30;;;;;;;21.44;38.26;99131.88;8162935;29;20040;-72
2022/05/02 15:24:45;;;;;;;2.72;1.77;;;;;;;21.41;37.89;99127.63;8166102;29;20130;-72
2022/05/02 15:37:58;;;;;;;2.75;1.90;;;;;;;21.25;37.46;99121.44;8160243;29;20059;-72
2022/05/02 15:42:07;;;;;;;2.08;1.40;;;;;;;21.18;37.19;99115.56;8164700;29;20068;-73
2022/05/02 15:46:15;;;;;;;1.88;1.38;;;;;;;21.05;38.37;99119.78;8139062;29;20051;-73
2022/05/02 15:50:19;;;;;;;6.60;1.48;;;;;;;20.86;39.18;99117.22;8170057;29;20098;-72
2022/05/02 15:54:23;;;;;;;3.42;1.73;;;;;;;20.76;38.92;99118.63;8173825;29;20047;-71
2022/05/02 15:58:25;;;;;;;3.28;1.58;;;;;;;20.62;38.45;99108.75;8175185;29;20688;-71
2022/05/02 16:02:30;;;;;;;3.53;1.58;;;;;;;20.61;39.07;99106.19;8172615;29;20048;-71
2022/05/02 16:06:49;;;;;;;2.83;1.75;;;;;;;20.47;37.77;99109.53;8161257;29;20146;-72
2022/05/02 16:10:57;;;;;;;3.45;1.80;;;;;;;20.45;38.74;99114.00;8153026;29;20075;-72
2022/05/02 16:15:00;;;;;;;2.08;1.40;;;;;;;20.36;40.10;99110.00;8162120;29;20058;-72
2022/05/02 16:19:03;;;;;;;5.18;1.95;;;;;;;20.33;42.10;99110.16;8161668;29;20062;-71
2022/05/02 16:23:07;;;;;;;3.95;1.73;;;;;;;20.25;40.90;99101.75;8151246;29;20039;-72
2022/05/02 16:27:20;;;;;;;3.60;1.83;;;;;;;20.11;40.29;99101.59;8159891;29;20052;-72
2022/05/02 16:31:21;;;;;;;2.97;1.73;;;;;;;20.08;39.73;99105.19;8145772;29;20083;-71
2022/05/02 16:35:24;;;;;;;5.97;2.03;;;;;;;20.00;39.02;99107.34;8160738;29;20063;-71
2022/05/02 16:39:26;;;;;;;5.20;2.05;;;;;;;19.98;39.66;99098.69;8154135;29;20061;-72
2022/05/02 16:43:30;;;;;;;4.60;1.75;;;;;;;19.98;40.26;99095.19;8154109;29;20079;-71
2022/05/02 16:47:37;;;;;;;1.73;1.58;;;;;;;19.97;39.69;99096.97;8168220;28;20053;-72
2022/05/02 16:51:38;;;;;;;2.03;1.30;;;;;;;20.00;39.70;99095.97;8162651;29;20090;-71
2022/05/02 16:55:40;;;;;;;4.28;1.73;;;;;;;19.94;39.00;99094.47;8154689;29;20047;-72
2022/05/02 16:59:41;;;;;;;4.63;1.38;;;;;;;19.94;40.07;99094.47;8153608;29;20205;-72
2022/05/02 17:04:08;;;;;;;5.70;1.42;;;;;;;19.85;39.69;99092.25;8144122;29;20086;-72
2022/05/02 17:08:14;;;;;;;3.85;1.50;;;;;;;19.80;41.58;99086.38;8130120;29;20392;-72
2022/05/02 17:12:16;;;;;;;4.18;1.60;;;;;;;19.71;40.13;99090.25;8146984;29;20739;-73
2022/05/02 17:16:23;;;;;;;1.73;1.60;;;;;;;19.62;41.48;99088.06;8145055;28;20166;-73
2022/05/02 17:20:31;;;;;;;4.05;1.63;;;;;;;19.54;42.16;99092.81;8147792;29;20083;-72
2022/05/02 17:24:43;;;;;;;3.50;1.48;;;;;;;19.42;42.02;99090.72;8148047;29;20048;-73
2022/05/02 17:28:56;;;;;;;4.45;1.70;;;;;;;19.30;42.64;99098.25;8154236;29;20079;-72
2022/05/02 17:32:58;;;;;;;2.97;1.58;;;;;;;19.20;42.01;99096.94;8140660;29;20093;-73
2022/05/02 17:37:00;;;;;;;3.78;1.40;;;;;;;19.11;42.08;99093.88;8151008;29;20039;-72
2022/05/02 17:41:28;;;;;;;10.43;1.50;;;;;;;19.04;41.69;99100.34;8146257;29;20135;-73
2022/05/02 17:45:56;;;;;;;;;;;;;;;18.97;41.82;99104.97;8138327;29;20058;-73
2022/05/02 17:50:07;;;;;;;3.05;1.90;;;;;;;18.87;41.39;99103.69;8152257;29;20268;-73
2022/05/02 17:54:09;;;;;;;3.78;1.88;;;;;;;18.77;41.79;99097.94;8150838;29;20054;-72
2022/05/02 17:58:13;;;;;;;4.35;1.40;;;;;;;18.65;43.41;99107.19;8157599;29;20130;-72
2022/05/02 18:02:15;;;;;;;2.67;1.55;;;;;;;18.55;43.16;99097.97;8153873;29;20079;-72
2022/05/02 18:06:34;;;;;;;1.65;1.38;;;;;;;18.39;43.14;99099.50;8150199;29;20077;-72
2022/05/02 18:10:35;;;;;;;2.63;1.40;;;;;;;18.24;44.07;99105.38;8156810;29;20146;-72
2022/05/02 18:14:37;;;;;;;1.77;1.63;;;;;;;18.03;45.44;99099.22;8150136;29;20062;-72
2022/05/02 18:18:44;;;;;;;2.50;1.67;;;;;;;17.76;46.38;99104.59;8146213;29;20060;-72
2022/05/02 18:22:57;;;;;;;2.63;1.50;;;;;;;17.58;47.60;99107.88;8156564;29;20048;-72
2022/05/02 18:27:03;;;;;;;2.15;1.30;;;;;;;17.34;46.68;99103.56;8149652;29;20044;-71
2022/05/02 18:31:08;;;;;;;1.77;1.33;;;;;;;17.13;47.61;99108.66;8145265;29;20154;-72
2022/05/02 18:39:51;;;;;;;3.03;1.33;;;;;;;16.68;50.13;99111.09;8534510;27;20074;-72
2022/05/02 18:44:17;;;;;;;1.75;1.35;;;;;;;16.52;50.72;99112.50;8516422;27;20669;-73
2022/05/02 18:52:57;;;;;;;6.28;1.52;;;;;;;16.18;51.76;99118.84;8430296;28;20098;-73
2022/05/02 18:57:07;;;;;;;3.35;2.88;;;;;;;16.09;52.32;99120.88;8440427;28;20040;-73
2022/05/02 19:01:09;;;;;;;2.47;1.63;;;;;;;15.95;52.99;99121.28;8420105;28;20055;-72
2022/05/02 19:05:24;;;;;;;2.88;1.35;;;;;;;15.88;53.31;99127.63;8463864;28;20035;-72
2022/05/02 19:09:28;;;;;;;3.90;1.70;;;;;;;15.75;54.46;99127.13;8466311;28;20043;-72
2022/05/02 19:13:42;;;;;;;1.95;1.45;;;;;;;15.65;55.46;99139.66;8468033;28;20091;-72
2022/05/02 19:17:47;;;;;;;1.65;1.55;;;;;;;15.43;57.42;99136.72;8466747;27;20051;-71
2022/05/02 19:22:06;;;;;;;1.55;1.20;;;;;;;15.17;58.29;99139.22;8452944;28;20146;-71
2022/05/02 19:26:11;;;;;;;2.53;1.40;;;;;;;14.96;59.45;99147.63;8447014;28;20600;-71
2022/05/02 19:30:15;;;;;;;1.95;1.50;;;;;;;14.72;60.43;99160.44;8460779;28;20467;-71
2022/05/02 19:43:14;;;;;;;3.17;1.40;;;;;;;13.97;63.13;99158.66;8399904;28;20068;-72
2022/05/02 19:47:23;;;;;;;4.32;1.73;;;;;;;13.88;63.62;99162.34;8371546;28;20143;-71
2022/05/02 19:51:24;;;;;;;2.85;1.40;;;;;;;13.74;63.87;99160.91;8372253;28;20059;-71
2022/05/02 19:55:28;;;;;;;2.60;1.43;;;;;;;13.54;64.51;99159.56;8368859;28;20048;-71
2022/05/02 19:59:30;;;;;;;3.00;1.77;;;;;;;13.37;65.17;99163.41;8372782;28;20067;-71
2022/05/02 20:03:36;;;;;;;2.28;1.88;;;;;;;13.25;66.31;99173.16;8374894;28;20522;-71
2022/05/02 20:07:41;;;;;;;2.78;1.80;;;;;;;13.18;67.16;99179.41;8369517;28;20044;-71
2022/05/02 20:11:42;;;;;;;1.98;1.42;;;;;;;13.05;67.81;99179.59;8373263;28;20404;-71
2022/05/02 20:15:43;;;;;;;2.80;2.13;;;;;;;12.91;67.80;99175.50;8367704;28;20067;-71
2022/05/02 20:19:45;;;;;;;2.35;1.70;;;;;;;12.81;68.92;99178.28;8370643;28;20086;-71
2022/05/02 20:23:47;;;;;;;2.20;1.52;;;;;;;12.65;69.22;99175.09;8372074;28;20087;-71
2022/05/02 20:27:48;;;;;;;2.55;2.30;;;;;;;12.57;69.57;99177.81;8369844;28;20561;-71
2022/05/02 20:40:31;;;;;;;3.78;2.65;;;;;;;12.27;70.43;99192.16;8435766;28;20058;-71
2022/05/02 20:44:54;;;;;;;1.85;1.75;;;;;;;12.21;70.79;99189.66;8423616;28;20734;-71
2022/05/02 20:48:59;;;;;;;2.05;1.85;;;;;;;12.10;71.08;99195.00;8436282;28;20051;-72